Station: EHBK - 21/11/2017 09:55Z (il y a 19 minutes)
EHBK 210955Z AUTO 23017KT 8000 SCT005/// OVC007/// 10/10 Q1013 REDZ TEMPO 6000 DZRA BKN004
Vent du 230º - 17 kt
Visibilité: 8000 m
Ciel 50% couvert à 500 pieds - Ciel couvert à 700 pieds
Température: +10ºC - Point de rosée: +10ºC - QNH: 1013 hPa - Récemment: bruine
Temporairement
Visibilité: 6000 m - bruine pluie
Ciel 75% couvert à 400 pieds